Time;durP1;ratioP1;P1;durP2;ratioP2;P2;SDS_P1;SDS_P2;PMS_P1;PMS_P2;Temp;Humidity;BMP_temperature;BMP_pressure;BME280_temperature;BME280_humidity;BME280_pressure;Samples;Min_cycle;Max_cycle;Signal;HPM_P1;HPM_P2
2022/09/26 02:09:48;;;;;;;11.48;6.80;;;;;;;;;;4980366;28;20072;-66
2022/09/26 02:12:20;;;;;;;11.95;6.53;;;;;;;;;;4989551;28;20352;-66
2022/09/26 02:14:46;;;;;;;7.63;5.68;;;;;;;;;;4988831;28;20485;-66
2022/09/26 02:17:14;;;;;;;10.38;6.47;;;;;;;;;;4988561;28;20317;-66
2022/09/26 02:19:48;;;;;;;9.57;6.05;;;;;;;;;;4988608;28;20348;-66
2022/09/26 02:22:13;;;;;;;11.23;6.70;;;;;;;;;;4972030;28;20436;-65
2022/09/26 02:24:39;;;;;;;10.13;5.93;;;;;;;;;;4990579;28;20497;-66
2022/09/26 02:27:05;;;;;;;13.77;6.30;;;;;;;;;;4989944;28;20408;-66
2022/09/26 02:29:31;;;;;;;9.25;6.45;;;;;;;;;;4990016;28;20041;-65
2022/09/26 02:32:01;;;;;;;12.45;6.60;;;;;;;;;;4991441;28;20415;-66
2022/09/26 02:34:27;;;;;;;12.48;6.63;;;;;;;;;;4988812;28;20414;-66
2022/09/26 02:36:54;;;;;;;11.80;7.25;;;;;;;;;;4988188;28;20029;-66
2022/09/26 02:39:19;;;;;;;12.60;6.72;;;;;;;;;;4988103;28;20169;-66
2022/09/26 02:41:48;;;;;;;11.60;5.88;;;;;;;;;;4989857;28;20170;-66
2022/09/26 02:44:37;;;;;;;10.95;6.85;;;;;;;;;;4988217;28;20479;-66
2022/09/26 02:47:05;;;;;;;10.75;7.15;;;;;;;;;;4987985;28;20439;-66
2022/09/26 02:49:53;;;;;;;10.13;5.80;;;;;;;;;;4990355;28;20452;-65
2022/09/26 02:52:53;;;;;;;8.20;6.10;;;;;;;;;;4988550;28;20454;-65
2022/09/26 02:55:39;;;;;;;10.45;5.93;;;;;;;;;;4987903;28;20359;-66
2022/09/26 02:58:24;;;;;;;13.23;6.88;;;;;;;;;;4989428;28;20111;-66
2022/09/26 03:01:04;;;;;;;10.75;5.55;;;;;;;;;;4989763;28;20435;-65
2022/09/26 03:03:38;;;;;;;10.82;6.38;;;;;;;;;;4987945;28;20090;-66
2022/09/26 03:06:05;;;;;;;10.60;5.85;;;;;;;;;;4987578;28;20351;-66
2022/09/26 03:08:35;;;;;;;8.80;5.80;;;;;;;;;;4986773;28;20351;-66
2022/09/26 03:11:04;;;;;;;10.15;6.47;;;;;;;;;;4987673;28;20375;-66
2022/09/26 03:13:33;;;;;;;8.27;5.82;;;;;;;;;;4991012;28;20432;-66
2022/09/26 03:15:58;;;;;;;10.43;6.13;;;;;;;;;;4987371;28;20376;-66
2022/09/26 03:18:27;;;;;;;10.00;5.80;;;;;;;;;;4987935;28;20470;-66
2022/09/26 03:20:53;;;;;;;;;;;;;;;;;;4987995;28;20025;-66
2022/09/26 03:23:23;;;;;;;10.68;6.18;;;;;;;;;;4988823;28;20334;-65
2022/09/26 03:26:09;;;;;;;10.98;5.85;;;;;;;;;;4987988;28;20439;-66
2022/09/26 03:28:35;;;;;;;9.75;6.28;;;;;;;;;;4988720;28;20440;-66
2022/09/26 03:31:00;;;;;;;12.57;6.40;;;;;;;;;;4988881;28;20387;-66
2022/09/26 03:33:26;;;;;;;11.32;5.50;;;;;;;;;;4988689;28;20391;-66
2022/09/26 03:35:51;;;;;;;10.15;6.45;;;;;;;;;;4988823;28;20371;-65
2022/09/26 03:38:17;;;;;;;9.60;5.82;;;;;;;;;;4989452;28;20448;-66
2022/09/26 03:40:43;;;;;;;11.68;6.13;;;;;;;;;;4988689;28;20535;-66
2022/09/26 03:43:09;;;;;;;9.20;5.95;;;;;;;;;;4990699;28;20496;-66
2022/09/26 03:45:35;;;;;;;9.70;5.47;;;;;;;;;;4990415;28;20047;-65
2022/09/26 03:48:00;;;;;;;11.65;6.50;;;;;;;;;;4988360;28;20393;-66
2022/09/26 03:50:26;;;;;;;8.70;5.85;;;;;;;;;;4988675;28;20090;-66
2022/09/26 03:52:51;;;;;;;12.95;5.60;;;;;;;;;;4989391;28;20462;-66
2022/09/26 03:55:17;;;;;;;11.55;5.47;;;;;;;;;;4988367;28;20099;-65
2022/09/26 03:57:42;;;;;;;10.35;6.35;;;;;;;;;;4988328;28;20380;-66
2022/09/26 04:00:08;;;;;;;8.68;5.15;;;;;;;;;;4988086;28;20396;-66
2022/09/26 04:02:34;;;;;;;11.32;6.40;;;;;;;;;;4970549;28;20052;-66
2022/09/26 04:04:59;;;;;;;18.17;6.90;;;;;;;;;;4986608;28;20490;-66
2022/09/26 04:07:25;;;;;;;10.70;5.30;;;;;;;;;;4986538;28;20432;-66
2022/09/26 04:09:50;;;;;;;9.15;5.38;;;;;;;;;;4987576;28;20337;-66
2022/09/26 04:12:16;;;;;;;10.50;6.18;;;;;;;;;;4986412;28;20428;-66
2022/09/26 04:14:42;;;;;;;9.80;5.90;;;;;;;;;;4986362;28;20037;-66
2022/09/26 04:17:08;;;;;;;10.95;6.88;;;;;;;;;;4988048;28;20386;-66
2022/09/26 04:19:33;;;;;;;7.90;5.50;;;;;;;;;;4987412;28;20101;-66
2022/09/26 04:21:59;;;;;;;8.30;5.50;;;;;;;;;;4987351;28;20029;-66
2022/09/26 04:24:24;;;;;;;10.00;5.93;;;;;;;;;;4987851;28;20383;-66
2022/09/26 04:26:49;;;;;;;8.63;5.13;;;;;;;;;;4987808;28;20379;-66
2022/09/26 04:29:15;;;;;;;9.07;5.40;;;;;;;;;;4988420;28;20033;-66
2022/09/26 04:31:40;;;;;;;10.15;5.80;;;;;;;;;;4986042;28;20526;-66
2022/09/26 04:34:06;;;;;;;11.70;6.65;;;;;;;;;;4987456;28;20079;-66
2022/09/26 04:36:32;;;;;;;7.82;5.72;;;;;;;;;;4986096;28;20563;-66
2022/09/26 04:38:59;;;;;;;9.88;6.57;;;;;;;;;;4985954;28;20363;-68
2022/09/26 04:41:26;;;;;;;9.57;6.22;;;;;;;;;;4987824;28;20348;-66
2022/09/26 04:43:56;;;;;;;12.55;5.53;;;;;;;;;;4985973;28;20454;-66
2022/09/26 04:46:23;;;;;;;12.00;6.30;;;;;;;;;;4987645;28;20455;-66
2022/09/26 04:48:49;;;;;;;8.25;5.55;;;;;;;;;;4987466;28;20392;-66
2022/09/26 04:51:16;;;;;;;11.13;6.30;;;;;;;;;;4987666;28;20037;-66
2022/09/26 04:53:41;;;;;;;9.98;5.63;;;;;;;;;;4987570;28;20375;-66
2022/09/26 04:56:09;;;;;;;7.65;5.32;;;;;;;;;;4988419;28;20426;-66
2022/09/26 04:58:37;;;;;;;9.18;5.90;;;;;;;;;;4987580;28;20102;-66
2022/09/26 05:01:04;;;;;;;10.13;6.22;;;;;;;;;;4987421;28;20432;-66
2022/09/26 05:03:30;;;;;;;9.88;6.05;;;;;;;;;;4987989;28;20432;-66
2022/09/26 05:05:55;;;;;;;9.32;6.55;;;;;;;;;;4987548;28;20440;-66
2022/09/26 05:08:22;;;;;;;9.70;6.05;;;;;;;;;;4985935;28;20459;-66
2022/09/26 05:10:54;;;;;;;8.15;6.22;;;;;;;;;;4987093;28;20233;-66
2022/09/26 05:13:24;;;;;;;9.13;6.47;;;;;;;;;;4988781;28;20407;-66
2022/09/26 05:15:53;;;;;;;10.20;6.72;;;;;;;;;;4987806;28;20474;-66
2022/09/26 05:18:18;;;;;;;8.13;5.53;;;;;;;;;;4987823;28;20440;-66
2022/09/26 05:20:47;;;;;;;10.05;6.35;;;;;;;;;;4987249;28;20420;-66
2022/09/26 05:28:42;;;;;;;10.00;6.60;;;;;;;;;;4987679;28;20470;-66
2022/09/26 05:31:07;;;;;;;8.68;5.85;;;;;;;;;;4987450;28;20507;-66
2022/09/26 05:33:35;;;;;;;14.57;5.78;;;;;;;;;;4991084;28;20497;-66
2022/09/26 05:36:00;;;;;;;9.10;5.97;;;;;;;;;;4990106;28;20356;-66
2022/09/26 05:38:26;;;;;;;11.48;7.10;;;;;;;;;;4990781;28;20343;-66
2022/09/26 05:40:55;;;;;;;10.32;6.72;;;;;;;;;;4991218;28;20438;-66
2022/09/26 05:43:22;;;;;;;10.07;6.35;;;;;;;;;;4991632;28;20423;-66
2022/09/26 05:45:48;;;;;;;9.07;5.97;;;;;;;;;;4991630;28;20033;-66
2022/09/26 05:48:13;;;;;;;9.63;6.85;;;;;;;;;;4990651;28;20448;-66
2022/09/26 05:50:39;;;;;;;12.27;6.07;;;;;;;;;;4990654;28;20387;-66
2022/09/26 05:53:04;;;;;;;9.13;6.93;;;;;;;;;;4991083;28;20408;-67
2022/09/26 05:55:30;;;;;;;10.60;6.80;;;;;;;;;;4990611;28;20531;-66
2022/09/26 05:57:59;;;;;;;10.98;6.85;;;;;;;;;;4989194;28;20503;-66
2022/09/26 06:00:25;;;;;;;;;;;;;;;;;;4989354;28;20724;-66
2022/09/26 06:02:57;;;;;;;7.78;6.10;;;;;;;;;;4989886;28;20233;-66
2022/09/26 06:05:23;;;;;;;11.70;7.00;;;;;;;;;;4990643;28;20439;-66
2022/09/26 06:07:49;;;;;;;11.63;6.85;;;;;;;;;;4990873;28;20350;-66
2022/09/26 06:10:14;;;;;;;10.18;7.05;;;;;;;;;;4990143;28;20045;-66
2022/09/26 06:12:40;;;;;;;10.20;6.72;;;;;;;;;;4990296;28;20466;-66
2022/09/26 06:15:05;;;;;;;11.85;6.10;;;;;;;;;;4990464;28;20198;-66
2022/09/26 06:17:31;;;;;;;18.23;7.03;;;;;;;;;;4990241;28;20463;-66
2022/09/26 06:19:56;;;;;;;10.32;6.75;;;;;;;;;;4990076;28;20431;-66
2022/09/26 06:22:23;;;;;;;10.27;6.97;;;;;;;;;;4990424;28;20503;-66
2022/09/26 06:24:48;;;;;;;7.47;5.60;;;;;;;;;;4990074;28;20439;-66
2022/09/26 06:27:13;;;;;;;10.73;6.60;;;;;;;;;;4991435;28;20424;-66
2022/09/26 06:29:39;;;;;;;9.20;6.05;;;;;;;;;;4989832;28;20400;-66
2022/09/26 06:32:04;;;;;;;7.72;5.30;;;;;;;;;;4990064;28;20454;-66
2022/09/26 06:34:29;;;;;;;12.25;6.13;;;;;;;;;;4991224;28;20416;-66
2022/09/26 06:36:55;;;;;;;11.98;7.28;;;;;;;;;;4990376;28;20321;-66
2022/09/26 06:39:20;;;;;;;9.57;6.72;;;;;;;;;;4989843;28;20565;-66
2022/09/26 06:41:46;;;;;;;10.50;7.00;;;;;;;;;;4990322;28;20343;-66
2022/09/26 06:44:11;;;;;;;13.90;7.22;;;;;;;;;;4989118;28;20385;-66
2022/09/26 06:46:37;;;;;;;12.13;7.15;;;;;;;;;;4989786;28;20416;-66
2022/09/26 06:49:02;;;;;;;7.60;5.45;;;;;;;;;;4988336;28;20325;-66
2022/09/26 06:51:28;;;;;;;7.43;4.22;;;;;;;;;;4990981;28;20402;-66
2022/09/26 06:53:53;;;;;;;6.85;4.20;;;;;;;;;;4989499;28;20428;-66
2022/09/26 06:56:18;;;;;;;6.97;4.57;;;;;;;;;;4989479;28;20490;-65
2022/09/26 06:58:44;;;;;;;6.65;4.88;;;;;;;;;;4990131;28;20119;-66
2022/09/26 07:01:10;;;;;;;9.43;5.43;;;;;;;;;;4990401;28;20415;-66
2022/09/26 07:03:36;;;;;;;8.27;5.22;;;;;;;;;;4991051;28;20075;-66
2022/09/26 07:06:02;;;;;;;8.10;5.00;;;;;;;;;;4989221;28;20030;-66
2022/09/26 07:08:27;;;;;;;8.50;5.32;;;;;;;;;;4990571;28;20316;-66
2022/09/26 07:10:58;;;;;;;6.85;4.80;;;;;;;;;;4989759;28;20392;-66
2022/09/26 07:13:24;;;;;;;6.88;4.88;;;;;;;;;;4990267;28;20363;-66
2022/09/26 07:15:50;;;;;;;6.25;4.57;;;;;;;;;;4987628;28;20371;-66
2022/09/26 07:18:16;;;;;;;7.78;5.68;;;;;;;;;;4989873;28;20436;-66
2022/09/26 07:20:46;;;;;;;8.10;4.68;;;;;;;;;;4989588;28;20466;-66
2022/09/26 07:23:12;;;;;;;7.55;4.88;;;;;;;;;;4989629;28;20440;-66
2022/09/26 07:25:38;;;;;;;6.18;4.60;;;;;;;;;;4987853;28;20428;-66
2022/09/26 07:28:06;;;;;;;6.93;4.18;;;;;;;;;;4988969;28;20527;-66
2022/09/26 07:30:31;;;;;;;5.72;4.28;;;;;;;;;;4989117;28;20406;-66
2022/09/26 07:33:02;;;;;;;5.72;4.25;;;;;;;;;;4989343;28;20021;-66
2022/09/26 07:35:34;;;;;;;5.88;3.78;;;;;;;;;;4988870;28;20409;-66
2022/09/26 07:38:00;;;;;;;6.40;3.67;;;;;;;;;;4989959;28;20510;-66
2022/09/26 07:40:26;;;;;;;6.65;3.85;;;;;;;;;;4990961;28;20454;-66
2022/09/26 07:42:51;;;;;;;6.80;4.60;;;;;;;;;;4989070;28;20377;-66
2022/09/26 07:50:09;;;;;;;6.25;4.43;;;;;;;;;;4988489;28;20028;-66
2022/09/26 07:50:50;;;;;;;7.03;4.07;;;;;;;;;;4987285;28;20368;-66
2022/09/26 07:53:16;;;;;;;5.10;3.67;;;;;;;;;;4986918;28;20486;-66
2022/09/26 07:56:04;;;;;;;5.95;3.90;;;;;;;;;;4987590;28;20464;-66
2022/09/26 07:58:27;;;;;;;5.32;3.75;;;;;;;;;;4988648;28;20444;-66
2022/09/26 08:00:52;;;;;;;6.25;4.40;;;;;;;;;;4989059;28;20424;-66
2022/09/26 08:03:19;;;;;;;6.07;4.07;;;;;;;;;;4989021;28;20508;-66
2022/09/26 08:05:44;;;;;;;5.35;3.47;;;;;;;;;;4988104;28;20355;-66
2022/09/26 08:08:09;;;;;;;5.00;3.75;;;;;;;;;;4988409;28;20321;-66
2022/09/26 08:10:35;;;;;;;6.93;4.13;;;;;;;;;;4987969;28;20387;-66
2022/09/26 08:13:00;;;;;;;5.03;3.80;;;;;;;;;;4988056;28;20561;-66
2022/09/26 08:15:26;;;;;;;6.22;3.67;;;;;;;;;;4990543;28;20416;-66
2022/09/26 08:17:51;;;;;;;5.05;3.35;;;;;;;;;;4988170;28;20348;-66
2022/09/26 08:20:17;;;;;;;5.78;4.15;;;;;;;;;;4988423;28;20498;-66
2022/09/26 08:22:42;;;;;;;7.15;3.88;;;;;;;;;;4988300;28;20352;-66
2022/09/26 08:25:08;;;;;;;5.50;3.67;;;;;;;;;;4986376;28;20025;-66
2022/09/26 08:27:34;;;;;;;5.68;3.55;;;;;;;;;;4989430;28;20407;-66
2022/09/26 08:29:59;;;;;;;5.28;4.03;;;;;;;;;;4987203;28;20524;-66
2022/09/26 08:32:25;;;;;;;5.95;3.70;;;;;;;;;;4988250;28;20025;-66
2022/09/26 08:34:52;;;;;;;4.95;3.50;;;;;;;;;;4986212;28;20344;-66
2022/09/26 08:37:19;;;;;;;5.47;4.07;;;;;;;;;;4987639;28;20379;-66
2022/09/26 08:39:45;;;;;;;5.65;3.65;;;;;;;;;;4988146;28;20063;-68
2022/09/26 08:42:54;;;;;;;5.47;3.65;;;;;;;;;;4988111;28;20436;-66
2022/09/26 08:48:20;;;;;;;4.63;3.15;;;;;;;;;;4894104;28;20285;-66
2022/09/26 08:50:53;;;;;;;7.57;4.18;;;;;;;;;;4966327;28;20056;-66
2022/09/26 08:53:22;;;;;;;7.75;3.88;;;;;;;;;;4985986;28;20356;-66
2022/09/26 08:55:47;;;;;;;;;;;;;;;;;;4989021;28;20350;-66
2022/09/26 08:58:17;;;;;;;5.00;3.42;;;;;;;;;;4986088;28;20251;-66
2022/09/26 09:00:43;;;;;;;6.50;3.00;;;;;;;;;;4987542;28;20340;-66
2022/09/26 09:03:09;;;;;;;5.00;3.78;;;;;;;;;;4987410;28;20479;-66
2022/09/26 09:05:42;;;;;;;4.15;3.00;;;;;;;;;;4989735;28;20525;-66
2022/09/26 09:08:35;;;;;;;4.15;3.30;;;;;;;;;;4990124;28;20059;-66
2022/09/26 09:11:23;;;;;;;4.57;2.97;;;;;;;;;;4985938;28;20460;-66
2022/09/26 09:14:18;;;;;;;4.43;3.40;;;;;;;;;;4992917;28;20507;-66
2022/09/26 09:17:05;;;;;;;4.93;3.40;;;;;;;;;;4990537;28;20509;-66
2022/09/26 09:19:40;;;;;;;5.18;3.38;;;;;;;;;;4991973;28;20432;-66
2022/09/26 09:22:25;;;;;;;6.10;3.10;;;;;;;;;;4991044;28;20462;-66
2022/09/26 09:24:57;;;;;;;5.35;3.28;;;;;;;;;;4991289;28;20328;-66
2022/09/26 09:27:54;;;;;;;5.53;3.58;;;;;;;;;;4991335;28;20458;-66
2022/09/26 09:30:22;;;;;;;4.95;3.13;;;;;;;;;;4991358;28;20456;-67
2022/09/26 09:33:00;;;;;;;4.75;3.30;;;;;;;;;;4989818;28;20506;-66
2022/09/26 09:35:38;;;;;;;4.93;3.58;;;;;;;;;;4991166;28;20529;-66
2022/09/26 09:38:05;;;;;;;4.28;3.00;;;;;;;;;;4989707;28;20320;-66
2022/09/26 09:40:37;;;;;;;6.40;3.83;;;;;;;;;;4989921;28;20348;-66
2022/09/26 09:43:25;;;;;;;4.93;2.97;;;;;;;;;;4989162;28;20044;-66
2022/09/26 09:45:54;;;;;;;3.80;2.80;;;;;;;;;;4990757;28;20513;-66
2022/09/26 09:48:20;;;;;;;4.35;2.92;;;;;;;;;;4990715;28;20025;-66
2022/09/26 09:51:04;;;;;;;4.18;2.85;;;;;;;;;;4991170;28;20432;-66
2022/09/26 09:53:44;;;;;;;4.78;3.13;;;;;;;;;;4990967;28;20486;-66
2022/09/26 09:56:38;;;;;;;4.75;3.10;;;;;;;;;;4990117;28;20335;-66
2022/09/26 09:59:32;;;;;;;3.85;2.90;;;;;;;;;;4990062;28;20013;-66
2022/09/26 10:02:36;;;;;;;4.15;2.80;;;;;;;;;;4990500;28;20444;-66
2022/09/26 10:05:15;;;;;;;5.03;2.88;;;;;;;;;;4978654;28;20551;-65
2022/09/26 10:07:40;;;;;;;;;;;;;;;;;;4992984;28;20060;-65
2022/09/26 10:10:10;;;;;;;4.30;3.13;;;;;;;;;;4988451;28;20336;-66
2022/09/26 10:12:38;;;;;;;5.00;3.00;;;;;;;;;;4988902;28;20570;-66
2022/09/26 10:15:06;;;;;;;4.53;3.08;;;;;;;;;;4988596;28;20440;-66
2022/09/26 10:17:32;;;;;;;4.40;2.72;;;;;;;;;;4988148;28;20345;-66
2022/09/26 10:19:57;;;;;;;3.88;2.88;;;;;;;;;;4987719;28;20355;-66
2022/09/26 10:22:36;;;;;;;4.97;3.15;;;;;;;;;;4989045;28;20101;-67
2022/09/26 10:25:23;;;;;;;4.65;3.17;;;;;;;;;;4991044;28;20572;-66
2022/09/26 10:27:51;;;;;;;5.90;3.28;;;;;;;;;;4991675;28;20459;-66
2022/09/26 10:30:20;;;;;;;4.35;2.83;;;;;;;;;;4988602;28;20360;-66
2022/09/26 10:32:52;;;;;;;3.30;2.38;;;;;;;;;;4990959;28;20436;-66
2022/09/26 10:35:23;;;;;;;4.38;2.58;;;;;;;;;;4988670;28;20092;-65
2022/09/26 10:38:00;;;;;;;3.53;2.45;;;;;;;;;;4990008;28;20479;-66
2022/09/26 10:40:44;;;;;;;4.05;3.00;;;;;;;;;;4991900;28;20458;-66
2022/09/26 10:43:22;;;;;;;4.40;3.20;;;;;;;;;;4655623;28;10000783;-66
2022/09/26 10:45:53;;;;;;;3.67;2.88;;;;;;;;;;4991719;28;20514;-66
2022/09/26 10:48:21;;;;;;;4.00;2.65;;;;;;;;;;4988437;28;20349;-66
2022/09/26 10:50:49;;;;;;;5.03;2.88;;;;;;;;;;4990049;28;20094;-65
2022/09/26 10:53:16;;;;;;;4.43;3.05;;;;;;;;;;4990553;28;20372;-66
2022/09/26 10:55:52;;;;;;;5.05;3.00;;;;;;;;;;4989690;28;20399;-66
2022/09/26 10:58:21;;;;;;;3.97;2.65;;;;;;;;;;4990950;28;20528;-66
2022/09/26 11:00:50;;;;;;;3.95;3.03;;;;;;;;;;4987755;28;20467;-65
2022/09/26 11:03:21;;;;;;;4.78;3.20;;;;;;;;;;4989412;28;20458;-66
2022/09/26 11:05:56;;;;;;;4.13;2.60;;;;;;;;;;4989389;28;20383;-66
2022/09/26 11:08:26;;;;;;;5.93;2.92;;;;;;;;;;4989862;28;20468;-65
2022/09/26 11:10:52;;;;;;;3.50;2.47;;;;;;;;;;4988366;28;20452;-65
2022/09/26 11:13:18;;;;;;;5.30;2.70;;;;;;;;;;4989913;28;20335;-66
2022/09/26 11:16:08;;;;;;;6.18;3.05;;;;;;;;;;4989151;28;20478;-66
2022/09/26 11:18:45;;;;;;;3.42;2.70;;;;;;;;;;4989080;28;20513;-66
2022/09/26 11:21:23;;;;;;;4.32;2.67;;;;;;;;;;4989069;28;20348;-66
2022/09/26 11:24:11;;;;;;;4.10;2.63;;;;;;;;;;4989069;28;20455;-66
2022/09/26 11:27:03;;;;;;;4.67;2.70;;;;;;;;;;4988372;28;20335;-66
2022/09/26 11:29:40;;;;;;;5.70;2.63;;;;;;;;;;4988840;28;20497;-66
2022/09/26 11:32:13;;;;;;;4.53;2.58;;;;;;;;;;4972596;28;20351;-66
2022/09/26 11:34:39;;;;;;;3.80;2.70;;;;;;;;;;4987595;28;20355;-66
2022/09/26 11:37:37;;;;;;;3.30;2.53;;;;;;;;;;4989802;28;20055;-66
2022/09/26 11:40:08;;;;;;;3.20;2.13;;;;;;;;;;4988410;28;20033;-66
2022/09/26 11:43:12;;;;;;;3.92;2.33;;;;;;;;;;4987795;28;20328;-66
2022/09/26 11:45:58;;;;;;;3.15;2.33;;;;;;;;;;4990203;28;20367;-66
2022/09/26 11:48:51;;;;;;;3.30;2.22;;;;;;;;;;4988843;28;20535;-66
2022/09/26 11:51:23;;;;;;;3.63;2.55;;;;;;;;;;4987348;28;20344;-65
2022/09/26 11:54:24;;;;;;;3.05;2.03;;;;;;;;;;4986877;28;20111;-65
2022/09/26 11:56:58;;;;;;;3.20;2.53;;;;;;;;;;4988576;28;20456;-66
2022/09/26 11:59:46;;;;;;;5.40;2.53;;;;;;;;;;4986787;28;20342;-65
2022/09/26 12:02:16;;;;;;;3.53;2.53;;;;;;;;;;4988569;28;20348;-66
2022/09/26 12:05:24;;;;;;;2.63;2.17;;;;;;;;;;4988293;28;20025;-66
2022/09/26 12:08:39;;;;;;;2.72;2.30;;;;;;;;;;4949421;28;20063;-65
2022/09/26 12:11:44;;;;;;;3.72;2.63;;;;;;;;;;4907995;28;20503;-65
2022/09/26 12:14:34;;;;;;;3.22;2.08;;;;;;;;;;4986509;28;20506;-66
2022/09/26 12:17:00;;;;;;;3.90;2.70;;;;;;;;;;4987994;28;20394;-66
2022/09/26 12:19:42;;;;;;;2.63;2.28;;;;;;;;;;4987961;28;20367;-66
2022/09/26 12:22:27;;;;;;;3.45;2.40;;;;;;;;;;4988206;28;20457;-66
2022/09/26 12:25:06;;;;;;;3.60;2.30;;;;;;;;;;4986500;28;20347;-65
2022/09/26 12:27:42;;;;;;;4.93;2.53;;;;;;;;;;4988059;28;20502;-66
2022/09/26 12:30:25;;;;;;;3.50;2.40;;;;;;;;;;4987792;28;20420;-66
2022/09/26 12:32:50;;;;;;;3.88;2.95;;;;;;;;;;4986395;28;20505;-65
2022/09/26 12:35:48;;;;;;;3.03;2.30;;;;;;;;;;4989004;28;20476;-65
2022/09/26 12:38:20;;;;;;;3.30;2.42;;;;;;;;;;4987765;28;20383;-66
2022/09/26 12:41:09;;;;;;;2.85;2.17;;;;;;;;;;4985835;28;20367;-66
2022/09/26 12:44:01;;;;;;;3.90;2.47;;;;;;;;;;4987689;28;20607;-66
2022/09/26 12:47:05;;;;;;;3.75;2.38;;;;;;;;;;4986248;28;20089;-65
2022/09/26 12:50:08;;;;;;;4.82;2.72;;;;;;;;;;4989207;28;20351;-66
2022/09/26 12:52:52;;;;;;;2.50;2.15;;;;;;;;;;4987456;28;20174;-65
2022/09/26 12:55:43;;;;;;;3.53;2.42;;;;;;;;;;4988869;28;20355;-65
2022/09/26 12:58:30;;;;;;;3.92;2.50;;;;;;;;;;4986493;28;20419;-66
2022/09/26 13:01:14;;;;;;;4.28;3.08;;;;;;;;;;4988000;28;20440;-65
2022/09/26 13:03:54;;;;;;;4.75;2.47;;;;;;;;;;4987416;28;20476;-66
2022/09/26 13:06:34;;;;;;;3.58;2.22;;;;;;;;;;4986911;28;20336;-66
2022/09/26 13:09:07;;;;;;;3.38;2.10;;;;;;;;;;4988166;28;20438;-65
2022/09/26 13:11:38;;;;;;;4.43;2.53;;;;;;;;;;4987392;28;20436;-66
2022/09/26 13:14:17;;;;;;;2.88;2.35;;;;;;;;;;4987981;28;20462;-66
2022/09/26 13:17:04;;;;;;;3.20;2.30;;;;;;;;;;4985692;28;20348;-65
2022/09/26 13:19:50;;;;;;;4.60;2.38;;;;;;;;;;4989265;28;20059;-65
2022/09/26 13:23:10;;;;;;;3.38;2.00;;;;;;;;;;4985919;28;20414;-66
2022/09/26 13:25:43;;;;;;;4.45;2.58;;;;;;;;;;4907171;28;20518;-66
2022/09/26 13:28:17;;;;;;;3.03;2.28;;;;;;;;;;4969926;28;20423;-66
2022/09/26 13:30:48;;;;;;;2.53;2.20;;;;;;;;;;4985654;28;20335;-65
2022/09/26 13:33:32;;;;;;;3.08;2.20;;;;;;;;;;4985813;28;20079;-66
2022/09/26 13:36:00;;;;;;;3.58;2.58;;;;;;;;;;4985696;28;20443;-66
2022/09/26 13:39:03;;;;;;;2.47;2.05;;;;;;;;;;4985615;28;20462;-65
2022/09/26 13:41:37;;;;;;;3.55;2.28;;;;;;;;;;4987125;28;20455;-65
2022/09/26 13:44:32;;;;;;;7.30;2.72;;;;;;;;;;4987172;28;20351;-66
2022/09/26 13:47:11;;;;;;;3.20;2.33;;;;;;;;;;4985970;28;20391;-66
2022/09/26 13:49:55;;;;;;;;;;;;;;;;;;4985978;28;20424;-66
2022/09/26 13:52:59;;;;;;;2.70;2.22;;;;;;;;;;4988163;28;20290;-66
2022/09/26 13:55:28;;;;;;;3.22;1.90;;;;;;;;;;4989413;28;20502;-66
2022/09/26 13:58:02;;;;;;;3.65;2.35;;;;;;;;;;4990664;28;20091;-66
2022/09/26 14:00:33;;;;;;;2.80;2.13;;;;;;;;;;4990549;28;20545;-65
2022/09/26 14:03:17;;;;;;;3.50;2.65;;;;;;;;;;4991414;28;20355;-65
2022/09/26 14:05:42;;;;;;;3.58;2.58;;;;;;;;;;4990709;28;20361;-65
2022/09/26 14:11:44;;;;;;;3.15;2.30;;;;;;;;;;4951290;28;20480;-66
2022/09/26 14:14:16;;;;;;;3.22;2.17;;;;;;;;;;4951155;28;20433;-65
2022/09/26 14:16:43;;;;;;;3.40;2.40;;;;;;;;;;4951103;28;20453;-66
2022/09/26 14:19:29;;;;;;;3.47;2.45;;;;;;;;;;4951222;28;20445;-65
2022/09/26 14:22:19;;;;;;;3.50;2.30;;;;;;;;;;4950755;28;20403;-65
2022/09/26 14:24:46;;;;;;;4.50;2.15;;;;;;;;;;4951537;28;20037;-65
2022/09/26 14:27:11;;;;;;;4.15;2.50;;;;;;;;;;4950917;28;20530;-66
2022/09/26 14:29:41;;;;;;;3.80;2.30;;;;;;;;;;4950921;28;20460;-65
2022/09/26 14:32:07;;;;;;;2.75;2.38;;;;;;;;;;4952135;28;20425;-65
2022/09/26 14:34:42;;;;;;;3.92;2.22;;;;;;;;;;4950839;28;20472;-65
2022/09/26 14:37:23;;;;;;;4.20;2.28;;;;;;;;;;4950780;28;20443;-65
2022/09/26 14:40:09;;;;;;;4.25;2.47;;;;;;;;;;4950641;28;20510;-65
2022/09/26 14:42:43;;;;;;;4.55;2.50;;;;;;;;;;4950711;28;20476;-65
2022/09/26 14:45:27;;;;;;;3.42;2.47;;;;;;;;;;4952160;28;20330;-66
2022/09/26 14:47:55;;;;;;;3.35;2.30;;;;;;;;;;4949059;28;20464;-65
2022/09/26 14:50:27;;;;;;;3.78;2.45;;;;;;;;;;4950777;28;20610;-66
2022/09/26 14:52:57;;;;;;;3.10;2.13;;;;;;;;;;4950715;28;20441;-65
2022/09/26 14:55:23;;;;;;;3.33;2.50;;;;;;;;;;4950966;28;20549;-65
2022/09/26 14:57:49;;;;;;;5.38;2.40;;;;;;;;;;4950472;28;20170;-65
2022/09/26 15:00:40;;;;;;;3.60;2.47;;;;;;;;;;4950222;28;20124;-66
2022/09/26 15:03:12;;;;;;;3.30;2.58;;;;;;;;;;4949293;28;20392;-65
2022/09/26 15:05:39;;;;;;;4.30;2.90;;;;;;;;;;4949894;28;20460;-66
2022/09/26 15:08:20;;;;;;;3.17;2.45;;;;;;;;;;4952114;28;20299;-65
2022/09/26 15:10:46;;;;;;;3.88;2.70;;;;;;;;;;4984996;28;20472;-65
2022/09/26 15:13:27;;;;;;;2.80;2.10;;;;;;;;;;4989523;28;20377;-66
2022/09/26 15:16:11;;;;;;;3.70;2.35;;;;;;;;;;4988923;28;20402;-65
2022/09/26 15:18:42;;;;;;;6.97;2.78;;;;;;;;;;4989557;28;20511;-65
2022/09/26 15:21:33;;;;;;;4.15;2.65;;;;;;;;;;4987622;28;20507;-65
2022/09/26 15:23:59;;;;;;;3.58;2.67;;;;;;;;;;4988253;28;20043;-65
2022/09/26 15:26:31;;;;;;;6.07;2.85;;;;;;;;;;4987856;28;20343;-65
2022/09/26 15:28:57;;;;;;;7.38;3.17;;;;;;;;;;4988145;28;20427;-65
2022/09/26 15:31:25;;;;;;;6.05;3.30;;;;;;;;;;4988113;28;20446;-65
2022/09/26 15:33:55;;;;;;;5.20;3.22;;;;;;;;;;4989070;28;20487;-65
2022/09/26 15:36:20;;;;;;;6.05;3.58;;;;;;;;;;4988028;28;20084;-65
2022/09/26 15:38:47;;;;;;;4.72;3.03;;;;;;;;;;4988945;28;20103;-65
2022/09/26 15:42:57;;;;;;;5.93;3.47;;;;;;;;;;4988818;28;20358;-66
2022/09/26 15:44:05;;;;;;;6.93;3.13;;;;;;;;;;4988770;28;20478;-65
2022/09/26 15:46:31;;;;;;;5.97;2.95;;;;;;;;;;4989146;28;20492;-65
2022/09/26 15:48:57;;;;;;;6.22;3.25;;;;;;;;;;4988871;28;20426;-65
2022/09/26 15:51:44;;;;;;;4.97;3.20;;;;;;;;;;4988895;28;20475;-65
2022/09/26 15:54:12;;;;;;;4.10;3.00;;;;;;;;;;4988949;28;20420;-65
2022/09/26 15:56:41;;;;;;;4.38;2.60;;;;;;;;;;4987342;28;20029;-65
2022/09/26 15:59:13;;;;;;;5.20;3.03;;;;;;;;;;4988800;28;20094;-65
2022/09/26 16:01:41;;;;;;;4.78;2.88;;;;;;;;;;4988649;28;20502;-65
2022/09/26 16:04:13;;;;;;;4.45;3.20;;;;;;;;;;4988375;28;20447;-65
2022/09/26 16:06:40;;;;;;;6.30;3.25;;;;;;;;;;4989488;28;20048;-65
2022/09/26 16:09:20;;;;;;;4.82;3.30;;;;;;;;;;4986322;28;20494;-65
2022/09/26 16:11:57;;;;;;;5.63;3.20;;;;;;;;;;4988228;28;20467;-66
2022/09/26 16:14:39;;;;;;;7.32;3.40;;;;;;;;;;4986502;28;20317;-65
2022/09/26 16:17:11;;;;;;;5.93;3.20;;;;;;;;;;4985676;28;20386;-65
2022/09/26 16:19:44;;;;;;;5.47;3.25;;;;;;;;;;4987908;28;20083;-65
2022/09/26 16:22:50;;;;;;;5.45;3.33;;;;;;;;;;4988050;28;20111;-65
2022/09/26 16:25:18;;;;;;;4.13;2.80;;;;;;;;;;4990053;28;20454;-66
2022/09/26 16:27:48;;;;;;;5.40;2.83;;;;;;;;;;4988540;28;20339;-65
2022/09/26 16:30:38;;;;;;;4.15;2.83;;;;;;;;;;4988260;28;20340;-65
2022/09/26 16:33:03;;;;;;;5.90;3.30;;;;;;;;;;4951654;28;20470;-65
2022/09/26 16:35:30;;;;;;;6.75;3.25;;;;;;;;;;4988035;28;20460;-65
2022/09/26 16:37:59;;;;;;;5.28;3.33;;;;;;;;;;4986230;28;20462;-65
2022/09/26 16:40:29;;;;;;;5.63;3.35;;;;;;;;;;4986560;28;20395;-65
2022/09/26 16:43:22;;;;;;;5.75;3.60;;;;;;;;;;4986252;28;20349;-65
2022/09/26 16:46:08;;;;;;;7.70;3.50;;;;;;;;;;4985025;28;20064;-65
2022/09/26 16:48:50;;;;;;;4.10;2.85;;;;;;;;;;4986136;28;20354;-65
2022/09/26 16:51:17;;;;;;;6.78;3.60;;;;;;;;;;4987997;28;20516;-65
2022/09/26 16:54:22;;;;;;;7.68;3.78;;;;;;;;;;4987650;28;20455;-65
2022/09/26 16:56:50;;;;;;;7.82;3.95;;;;;;;;;;4982006;28;20491;-66
2022/09/26 16:59:27;;;;;;;5.93;3.60;;;;;;;;;;4987566;28;20513;-65
2022/09/26 17:01:54;;;;;;;7.65;3.75;;;;;;;;;;4987464;28;20029;-65
2022/09/26 17:04:30;;;;;;;6.97;3.72;;;;;;;;;;4987940;28;20543;-65
2022/09/26 17:06:57;;;;;;;7.90;3.80;;;;;;;;;;4987615;28;20021;-65
2022/09/26 17:09:28;;;;;;;9.10;4.53;;;;;;;;;;4987050;28;20095;-65
2022/09/26 17:11:56;;;;;;;8.57;4.75;;;;;;;;;;4987308;28;20017;-65
2022/09/26 17:14:26;;;;;;;9.38;4.90;;;;;;;;;;4989496;28;20503;-65
2022/09/26 17:16:55;;;;;;;11.32;5.13;;;;;;;;;;4985816;28;20415;-66
2022/09/26 17:19:22;;;;;;;6.60;3.92;;;;;;;;;;4987360;28;20489;-65
2022/09/26 17:21:48;;;;;;;8.50;4.45;;;;;;;;;;4989500;28;20446;-65
2022/09/26 17:24:16;;;;;;;7.18;3.97;;;;;;;;;;4987479;28;20391;-65
2022/09/26 17:26:52;;;;;;;7.68;4.45;;;;;;;;;;4986298;28;20123;-65
2022/09/26 17:29:21;;;;;;;11.88;4.35;;;;;;;;;;4991241;28;20341;-65
2022/09/26 17:31:46;;;;;;;7.35;4.55;;;;;;;;;;4991167;28;20395;-65
2022/09/26 17:34:13;;;;;;;7.25;4.68;;;;;;;;;;4991469;28;20411;-65
2022/09/26 17:36:42;;;;;;;8.52;4.65;;;;;;;;;;4989969;28;20428;-65
2022/09/26 17:39:11;;;;;;;8.85;4.70;;;;;;;;;;4989524;28;20536;-65